sensor_id;sensor_type;location;lat;lon;timestamp;P1;durP1;ratioP1;P2;durP2;ratioP2
545;SDS011;259;53.304;9.816;2023-06-04T00:01:55;1.00;;;0.90;;
545;SDS011;259;53.304;9.816;2023-06-04T00:04:21;0.90;;;0.90;;
545;SDS011;259;53.304;9.816;2023-06-04T00:06:48;0.83;;;0.70;;
545;SDS011;259;53.304;9.816;2023-06-04T00:09:14;1.20;;;0.90;;
545;SDS011;259;53.304;9.816;2023-06-04T00:11:40;1.40;;;1.30;;
545;SDS011;259;53.304;9.816;2023-06-04T00:14:06;1.20;;;1.10;;
545;SDS011;259;53.304;9.816;2023-06-04T00:16:31;0.80;;;0.80;;
545;SDS011;259;53.304;9.816;2023-06-04T00:19:00;1.03;;;1.03;;
545;SDS011;259;53.304;9.816;2023-06-04T00:21:26;0.80;;;0.80;;
545;SDS011;259;53.304;9.816;2023-06-04T00:23:52;1.00;;;1.00;;
545;SDS011;259;53.304;9.816;2023-06-04T00:26:17;0.93;;;0.80;;
545;SDS011;259;53.304;9.816;2023-06-04T00:28:43;3.37;;;1.10;;
545;SDS011;259;53.304;9.816;2023-06-04T00:31:09;0.80;;;0.80;;
545;SDS011;259;53.304;9.816;2023-06-04T00:33:37;0.73;;;0.73;;
545;SDS011;259;53.304;9.816;2023-06-04T00:36:04;0.80;;;0.80;;
545;SDS011;259;53.304;9.816;2023-06-04T00:38:30;0.90;;;0.90;;
545;SDS011;259;53.304;9.816;2023-06-04T00:40:55;0.83;;;0.83;;
545;SDS011;259;53.304;9.816;2023-06-04T00:43:21;1.37;;;0.90;;
545;SDS011;259;53.304;9.816;2023-06-04T00:45:50;1.03;;;0.93;;
545;SDS011;259;53.304;9.816;2023-06-04T00:48:17;0.83;;;0.83;;
545;SDS011;259;53.304;9.816;2023-06-04T00:50:43;0.80;;;0.80;;
545;SDS011;259;53.304;9.816;2023-06-04T00:53:09;0.80;;;0.80;;
545;SDS011;259;53.304;9.816;2023-06-04T00:55:36;0.97;;;0.93;;
545;SDS011;259;53.304;9.816;2023-06-04T00:58:01;0.70;;;0.70;;
545;SDS011;259;53.304;9.816;2023-06-04T01:00:29;1.10;;;0.90;;
545;SDS011;259;53.304;9.816;2023-06-04T01:02:57;0.90;;;0.90;;
545;SDS011;259;53.304;9.816;2023-06-04T01:08:13;1.17;;;1.07;;
545;SDS011;259;53.304;9.816;2023-06-04T01:11:01;1.30;;;1.20;;
545;SDS011;259;53.304;9.816;2023-06-04T01:13:26;1.20;;;1.00;;
545;SDS011;259;53.304;9.816;2023-06-04T01:15:52;0.93;;;0.93;;
545;SDS011;259;53.304;9.816;2023-06-04T01:18:19;1.07;;;0.97;;
545;SDS011;259;53.304;9.816;2023-06-04T01:20:56;1.10;;;1.00;;
545;SDS011;259;53.304;9.816;2023-06-04T01:23:37;1.10;;;1.10;;
545;SDS011;259;53.304;9.816;2023-06-04T01:26:11;1.00;;;1.00;;
545;SDS011;259;53.304;9.816;2023-06-04T01:28:38;0.87;;;0.83;;
545;SDS011;259;53.304;9.816;2023-06-04T01:31:04;1.10;;;1.00;;
545;SDS011;259;53.304;9.816;2023-06-04T01:33:33;1.10;;;1.00;;
545;SDS011;259;53.304;9.816;2023-06-04T01:35:59;1.00;;;1.00;;
545;SDS011;259;53.304;9.816;2023-06-04T01:38:26;0.80;;;0.80;;
545;SDS011;259;53.304;9.816;2023-06-04T01:40:52;1.30;;;1.20;;
545;SDS011;259;53.304;9.816;2023-06-04T01:43:21;1.57;;;1.00;;
545;SDS011;259;53.304;9.816;2023-06-04T01:45:48;1.67;;;0.97;;
545;SDS011;259;53.304;9.816;2023-06-04T01:48:14;1.10;;;1.10;;
545;SDS011;259;53.304;9.816;2023-06-04T01:50:40;1.30;;;1.20;;
545;SDS011;259;53.304;9.816;2023-06-04T01:53:06;1.23;;;1.13;;
545;SDS011;259;53.304;9.816;2023-06-04T01:55:31;1.23;;;1.13;;
545;SDS011;259;53.304;9.816;2023-06-04T01:57:58;1.30;;;1.23;;
545;SDS011;259;53.304;9.816;2023-06-04T02:00:25;1.07;;;0.90;;
545;SDS011;259;53.304;9.816;2023-06-04T02:02:51;1.17;;;1.07;;
545;SDS011;259;53.304;9.816;2023-06-04T02:05:18;1.60;;;1.50;;
545;SDS011;259;53.304;9.816;2023-06-04T02:07:44;1.37;;;1.27;;
545;SDS011;259;53.304;9.816;2023-06-04T02:10:13;1.27;;;1.17;;
545;SDS011;259;53.304;9.816;2023-06-04T02:12:52;3.00;;;1.50;;
545;SDS011;259;53.304;9.816;2023-06-04T02:15:22;1.37;;;1.27;;
545;SDS011;259;53.304;9.816;2023-06-04T02:17:49;1.40;;;1.30;;
545;SDS011;259;53.304;9.816;2023-06-04T02:20:15;1.10;;;1.10;;
545;SDS011;259;53.304;9.816;2023-06-04T02:22:42;1.23;;;1.23;;
545;SDS011;259;53.304;9.816;2023-06-04T02:25:08;1.20;;;1.10;;
545;SDS011;259;53.304;9.816;2023-06-04T02:27:34;1.27;;;1.20;;
545;SDS011;259;53.304;9.816;2023-06-04T02:30:00;1.70;;;1.10;;
545;SDS011;259;53.304;9.816;2023-06-04T02:32:27;1.40;;;1.30;;
545;SDS011;259;53.304;9.816;2023-06-04T02:34:53;1.40;;;1.30;;
545;SDS011;259;53.304;9.816;2023-06-04T02:37:20;1.93;;;1.60;;
545;SDS011;259;53.304;9.816;2023-06-04T02:39:47;1.27;;;1.10;;
545;SDS011;259;53.304;9.816;2023-06-04T02:42:13;1.43;;;1.00;;
545;SDS011;259;53.304;9.816;2023-06-04T02:44:38;1.30;;;1.20;;
545;SDS011;259;53.304;9.816;2023-06-04T02:47:04;1.37;;;1.27;;
545;SDS011;259;53.304;9.816;2023-06-04T02:49:30;1.10;;;1.03;;
545;SDS011;259;53.304;9.816;2023-06-04T02:51:56;1.33;;;1.23;;
545;SDS011;259;53.304;9.816;2023-06-04T02:54:22;4.73;;;2.13;;
545;SDS011;259;53.304;9.816;2023-06-04T02:56:47;1.30;;;1.20;;
545;SDS011;259;53.304;9.816;2023-06-04T02:59:14;1.53;;;1.23;;
545;SDS011;259;53.304;9.816;2023-06-04T03:01:40;1.53;;;1.13;;
545;SDS011;259;53.304;9.816;2023-06-04T03:04:06;1.70;;;1.60;;
545;SDS011;259;53.304;9.816;2023-06-04T03:06:35;1.30;;;1.20;;
545;SDS011;259;53.304;9.816;2023-06-04T03:09:04;1.60;;;1.50;;
545;SDS011;259;53.304;9.816;2023-06-04T03:11:30;1.27;;;1.17;;
545;SDS011;259;53.304;9.816;2023-06-04T03:13:55;1.83;;;1.30;;
545;SDS011;259;53.304;9.816;2023-06-04T03:16:22;1.20;;;1.10;;
545;SDS011;259;53.304;9.816;2023-06-04T03:18:48;1.13;;;1.03;;
545;SDS011;259;53.304;9.816;2023-06-04T03:21:14;1.37;;;1.27;;
545;SDS011;259;53.304;9.816;2023-06-04T03:23:39;1.40;;;1.30;;
545;SDS011;259;53.304;9.816;2023-06-04T03:26:06;1.17;;;1.07;;
545;SDS011;259;53.304;9.816;2023-06-04T03:28:32;1.60;;;1.50;;
545;SDS011;259;53.304;9.816;2023-06-04T03:30:58;1.30;;;1.20;;
545;SDS011;259;53.304;9.816;2023-06-04T03:33:25;1.40;;;1.30;;
545;SDS011;259;53.304;9.816;2023-06-04T03:35:51;1.33;;;1.23;;
545;SDS011;259;53.304;9.816;2023-06-04T03:38:23;1.43;;;1.33;;
545;SDS011;259;53.304;9.816;2023-06-04T03:40:50;1.10;;;1.10;;
545;SDS011;259;53.304;9.816;2023-06-04T03:43:17;1.20;;;1.13;;
545;SDS011;259;53.304;9.816;2023-06-04T03:45:44;0.90;;;0.90;;
545;SDS011;259;53.304;9.816;2023-06-04T03:48:10;1.07;;;1.07;;
545;SDS011;259;53.304;9.816;2023-06-04T03:50:36;1.33;;;1.23;;
545;SDS011;259;53.304;9.816;2023-06-04T03:53:02;0.97;;;0.80;;
545;SDS011;259;53.304;9.816;2023-06-04T03:55:31;1.40;;;1.30;;
545;SDS011;259;53.304;9.816;2023-06-04T03:57:57;1.30;;;1.20;;
545;SDS011;259;53.304;9.816;2023-06-04T04:00:23;1.10;;;1.00;;
545;SDS011;259;53.304;9.816;2023-06-04T04:02:49;1.40;;;1.30;;
545;SDS011;259;53.304;9.816;2023-06-04T04:05:15;1.10;;;1.10;;
545;SDS011;259;53.304;9.816;2023-06-04T04:07:41;1.40;;;1.30;;
545;SDS011;259;53.304;9.816;2023-06-04T04:10:07;1.33;;;1.23;;
545;SDS011;259;53.304;9.816;2023-06-04T04:12:33;1.07;;;1.00;;
545;SDS011;259;53.304;9.816;2023-06-04T04:14:58;1.30;;;1.20;;
545;SDS011;259;53.304;9.816;2023-06-04T04:17:25;1.70;;;1.60;;
545;SDS011;259;53.304;9.816;2023-06-04T04:19:51;1.30;;;1.20;;
545;SDS011;259;53.304;9.816;2023-06-04T04:22:16;1.17;;;1.07;;
545;SDS011;259;53.304;9.816;2023-06-04T04:24:42;1.50;;;1.40;;
545;SDS011;259;53.304;9.816;2023-06-04T04:27:09;0.93;;;0.93;;
545;SDS011;259;53.304;9.816;2023-06-04T04:29:38;1.23;;;1.13;;
545;SDS011;259;53.304;9.816;2023-06-04T04:32:04;1.30;;;1.20;;
545;SDS011;259;53.304;9.816;2023-06-04T04:34:36;1.30;;;1.20;;
545;SDS011;259;53.304;9.816;2023-06-04T04:37:07;1.43;;;1.33;;
545;SDS011;259;53.304;9.816;2023-06-04T04:39:34;1.33;;;1.17;;
545;SDS011;259;53.304;9.816;2023-06-04T04:42:01;2.10;;;1.37;;
545;SDS011;259;53.304;9.816;2023-06-04T04:44:28;1.40;;;1.30;;
545;SDS011;259;53.304;9.816;2023-06-04T04:46:53;1.50;;;1.40;;
545;SDS011;259;53.304;9.816;2023-06-04T04:49:19;1.20;;;1.10;;
545;SDS011;259;53.304;9.816;2023-06-04T04:51:45;1.67;;;1.17;;
545;SDS011;259;53.304;9.816;2023-06-04T04:54:11;1.13;;;1.03;;
545;SDS011;259;53.304;9.816;2023-06-04T04:56:37;1.90;;;1.80;;
545;SDS011;259;53.304;9.816;2023-06-04T04:59:02;1.33;;;1.23;;
545;SDS011;259;53.304;9.816;2023-06-04T05:01:28;1.23;;;1.13;;
545;SDS011;259;53.304;9.816;2023-06-04T05:03:54;1.17;;;1.10;;
545;SDS011;259;53.304;9.816;2023-06-04T05:06:20;1.07;;;0.97;;
545;SDS011;259;53.304;9.816;2023-06-04T05:08:46;0.90;;;0.90;;
545;SDS011;259;53.304;9.816;2023-06-04T05:11:12;1.20;;;1.10;;
545;SDS011;259;53.304;9.816;2023-06-04T05:13:38;1.50;;;1.40;;
545;SDS011;259;53.304;9.816;2023-06-04T05:16:04;1.13;;;1.10;;
545;SDS011;259;53.304;9.816;2023-06-04T05:18:32;1.13;;;1.03;;
545;SDS011;259;53.304;9.816;2023-06-04T05:20:59;1.10;;;1.00;;
545;SDS011;259;53.304;9.816;2023-06-04T05:23:28;1.43;;;1.33;;
545;SDS011;259;53.304;9.816;2023-06-04T05:25:55;1.20;;;1.10;;
545;SDS011;259;53.304;9.816;2023-06-04T05:28:21;1.57;;;1.10;;
545;SDS011;259;53.304;9.816;2023-06-04T05:30:50;1.20;;;1.20;;
545;SDS011;259;53.304;9.816;2023-06-04T05:33:17;1.30;;;1.10;;
545;SDS011;259;53.304;9.816;2023-06-04T05:35:44;1.67;;;1.10;;
545;SDS011;259;53.304;9.816;2023-06-04T05:38:14;1.40;;;1.17;;
545;SDS011;259;53.304;9.816;2023-06-04T05:40:42;1.20;;;1.10;;
545;SDS011;259;53.304;9.816;2023-06-04T05:43:08;1.27;;;1.17;;
545;SDS011;259;53.304;9.816;2023-06-04T05:45:34;1.40;;;1.30;;
545;SDS011;259;53.304;9.816;2023-06-04T05:48:00;1.20;;;1.20;;
545;SDS011;259;53.304;9.816;2023-06-04T05:50:26;1.37;;;1.20;;
545;SDS011;259;53.304;9.816;2023-06-04T05:52:53;1.40;;;1.30;;
545;SDS011;259;53.304;9.816;2023-06-04T05:55:18;1.00;;;1.00;;
545;SDS011;259;53.304;9.816;2023-06-04T05:57:44;1.23;;;1.13;;
545;SDS011;259;53.304;9.816;2023-06-04T06:00:10;1.07;;;1.00;;
545;SDS011;259;53.304;9.816;2023-06-04T06:02:38;1.33;;;1.13;;
545;SDS011;259;53.304;9.816;2023-06-04T06:05:04;1.23;;;1.23;;
545;SDS011;259;53.304;9.816;2023-06-04T06:07:33;1.63;;;1.53;;
545;SDS011;259;53.304;9.816;2023-06-04T06:10:00;1.50;;;1.40;;
545;SDS011;259;53.304;9.816;2023-06-04T06:12:26;1.40;;;1.30;;
545;SDS011;259;53.304;9.816;2023-06-04T06:14:51;1.13;;;1.13;;
545;SDS011;259;53.304;9.816;2023-06-04T06:17:17;1.40;;;1.30;;
545;SDS011;259;53.304;9.816;2023-06-04T06:19:43;1.63;;;1.50;;
545;SDS011;259;53.304;9.816;2023-06-04T06:22:08;1.70;;;1.60;;
545;SDS011;259;53.304;9.816;2023-06-04T06:24:35;1.20;;;1.10;;
545;SDS011;259;53.304;9.816;2023-06-04T06:27:01;1.40;;;1.27;;
545;SDS011;259;53.304;9.816;2023-06-04T06:29:26;1.20;;;1.10;;
545;SDS011;259;53.304;9.816;2023-06-04T06:31:52;1.33;;;1.23;;
545;SDS011;259;53.304;9.816;2023-06-04T06:34:18;1.50;;;1.40;;
545;SDS011;259;53.304;9.816;2023-06-04T06:36:44;1.30;;;1.20;;
545;SDS011;259;53.304;9.816;2023-06-04T06:39:09;1.40;;;1.20;;
545;SDS011;259;53.304;9.816;2023-06-04T06:41:36;1.30;;;1.20;;
545;SDS011;259;53.304;9.816;2023-06-04T06:44:03;1.40;;;1.30;;
545;SDS011;259;53.304;9.816;2023-06-04T06:46:30;1.20;;;1.10;;
545;SDS011;259;53.304;9.816;2023-06-04T06:48:55;1.73;;;1.20;;
545;SDS011;259;53.304;9.816;2023-06-04T06:51:22;1.40;;;1.30;;
545;SDS011;259;53.304;9.816;2023-06-04T06:53:48;2.23;;;1.20;;
545;SDS011;259;53.304;9.816;2023-06-04T06:56:18;1.50;;;1.40;;
545;SDS011;259;53.304;9.816;2023-06-04T06:58:44;1.73;;;1.23;;
545;SDS011;259;53.304;9.816;2023-06-04T07:01:10;1.43;;;1.33;;
545;SDS011;259;53.304;9.816;2023-06-04T07:03:37;1.17;;;1.07;;
545;SDS011;259;53.304;9.816;2023-06-04T07:06:04;0.90;;;0.90;;
545;SDS011;259;53.304;9.816;2023-06-04T07:08:31;1.40;;;1.30;;
545;SDS011;259;53.304;9.816;2023-06-04T07:10:57;1.20;;;1.20;;
545;SDS011;259;53.304;9.816;2023-06-04T07:13:24;1.20;;;1.10;;
545;SDS011;259;53.304;9.816;2023-06-04T07:15:50;1.40;;;1.30;;
545;SDS011;259;53.304;9.816;2023-06-04T07:18:16;1.20;;;1.10;;
545;SDS011;259;53.304;9.816;2023-06-04T07:20:42;1.40;;;1.30;;
545;SDS011;259;53.304;9.816;2023-06-04T07:23:07;1.17;;;1.00;;
545;SDS011;259;53.304;9.816;2023-06-04T07:25:33;1.43;;;1.10;;
545;SDS011;259;53.304;9.816;2023-06-04T07:27:59;0.90;;;0.90;;
545;SDS011;259;53.304;9.816;2023-06-04T07:30:28;1.57;;;1.47;;
545;SDS011;259;53.304;9.816;2023-06-04T07:32:56;1.10;;;1.10;;
545;SDS011;259;53.304;9.816;2023-06-04T07:35:23;2.87;;;1.20;;
545;SDS011;259;53.304;9.816;2023-06-04T07:37:49;1.40;;;1.30;;
545;SDS011;259;53.304;9.816;2023-06-04T07:40:15;1.27;;;1.17;;
545;SDS011;259;53.304;9.816;2023-06-04T07:42:41;1.20;;;1.10;;
545;SDS011;259;53.304;9.816;2023-06-04T07:45:10;1.23;;;1.13;;
545;SDS011;259;53.304;9.816;2023-06-04T07:47:36;1.20;;;1.10;;
545;SDS011;259;53.304;9.816;2023-06-04T07:50:05;1.10;;;0.97;;
545;SDS011;259;53.304;9.816;2023-06-04T07:52:32;1.50;;;1.30;;
545;SDS011;259;53.304;9.816;2023-06-04T07:54:58;1.00;;;0.93;;
545;SDS011;259;53.304;9.816;2023-06-04T07:57:24;1.10;;;1.00;;
545;SDS011;259;53.304;9.816;2023-06-04T07:59:50;1.30;;;1.20;;
545;SDS011;259;53.304;9.816;2023-06-04T08:02:17;1.50;;;1.40;;
545;SDS011;259;53.304;9.816;2023-06-04T08:04:43;1.00;;;1.00;;
545;SDS011;259;53.304;9.816;2023-06-04T08:07:11;1.60;;;1.50;;
545;SDS011;259;53.304;9.816;2023-06-04T08:09:37;1.27;;;1.17;;
545;SDS011;259;53.304;9.816;2023-06-04T08:12:03;1.20;;;1.10;;
545;SDS011;259;53.304;9.816;2023-06-04T08:14:29;0.80;;;0.80;;
545;SDS011;259;53.304;9.816;2023-06-04T08:16:58;1.00;;;0.90;;
545;SDS011;259;53.304;9.816;2023-06-04T08:19:24;1.47;;;1.37;;
545;SDS011;259;53.304;9.816;2023-06-04T08:21:49;0.90;;;0.90;;
545;SDS011;259;53.304;9.816;2023-06-04T08:24:15;2.40;;;1.20;;
545;SDS011;259;53.304;9.816;2023-06-04T08:26:41;1.50;;;1.40;;
545;SDS011;259;53.304;9.816;2023-06-04T08:29:07;1.50;;;1.23;;
545;SDS011;259;53.304;9.816;2023-06-04T08:31:33;1.60;;;1.50;;
545;SDS011;259;53.304;9.816;2023-06-04T08:33:59;1.10;;;1.00;;
545;SDS011;259;53.304;9.816;2023-06-04T08:36:24;1.20;;;1.10;;
545;SDS011;259;53.304;9.816;2023-06-04T08:38:50;1.73;;;1.00;;
545;SDS011;259;53.304;9.816;2023-06-04T08:44:15;1.33;;;1.17;;
545;SDS011;259;53.304;9.816;2023-06-04T08:46:43;1.17;;;1.07;;
545;SDS011;259;53.304;9.816;2023-06-04T08:49:09;1.07;;;0.90;;
545;SDS011;259;53.304;9.816;2023-06-04T08:51:38;1.53;;;1.43;;
545;SDS011;259;53.304;9.816;2023-06-04T08:54:07;1.20;;;1.10;;
545;SDS011;259;53.304;9.816;2023-06-04T08:56:34;2.00;;;0.90;;
545;SDS011;259;53.304;9.816;2023-06-04T08:59:04;1.53;;;1.43;;
545;SDS011;259;53.304;9.816;2023-06-04T09:01:32;2.40;;;1.40;;
545;SDS011;259;53.304;9.816;2023-06-04T09:04:03;1.20;;;1.10;;
545;SDS011;259;53.304;9.816;2023-06-04T09:06:31;1.33;;;1.23;;
545;SDS011;259;53.304;9.816;2023-06-04T09:08:58;1.50;;;1.10;;
545;SDS011;259;53.304;9.816;2023-06-04T09:12:02;1.10;;;1.10;;
545;SDS011;259;53.304;9.816;2023-06-04T09:14:22;1.87;;;1.20;;
545;SDS011;259;53.304;9.816;2023-06-04T09:16:49;1.00;;;0.90;;
545;SDS011;259;53.304;9.816;2023-06-04T09:19:17;2.50;;;1.43;;
545;SDS011;259;53.304;9.816;2023-06-04T09:21:48;1.40;;;1.30;;
545;SDS011;259;53.304;9.816;2023-06-04T09:24:22;1.20;;;1.10;;
545;SDS011;259;53.304;9.816;2023-06-04T09:27:14;1.63;;;1.30;;
545;SDS011;259;53.304;9.816;2023-06-04T09:29:50;2.40;;;1.10;;
545;SDS011;259;53.304;9.816;2023-06-04T09:32:23;1.03;;;1.00;;
545;SDS011;259;53.304;9.816;2023-06-04T09:34:51;1.53;;;1.43;;
545;SDS011;259;53.304;9.816;2023-06-04T09:37:18;1.37;;;0.93;;
545;SDS011;259;53.304;9.816;2023-06-04T09:39:52;2.13;;;1.40;;
545;SDS011;259;53.304;9.816;2023-06-04T09:42:22;1.30;;;1.20;;
545;SDS011;259;53.304;9.816;2023-06-04T09:44:48;1.13;;;1.03;;
545;SDS011;259;53.304;9.816;2023-06-04T09:47:14;0.83;;;0.83;;
545;SDS011;259;53.304;9.816;2023-06-04T09:52:10;2.37;;;1.10;;
545;SDS011;259;53.304;9.816;2023-06-04T09:54:37;1.30;;;1.10;;
545;SDS011;259;53.304;9.816;2023-06-04T09:57:13;1.10;;;1.10;;
545;SDS011;259;53.304;9.816;2023-06-04T09:59:41;0.90;;;0.80;;
545;SDS011;259;53.304;9.816;2023-06-04T10:02:18;1.13;;;1.03;;
545;SDS011;259;53.304;9.816;2023-06-04T10:04:53;1.30;;;1.10;;
545;SDS011;259;53.304;9.816;2023-06-04T10:07:22;1.97;;;1.13;;
545;SDS011;259;53.304;9.816;2023-06-04T10:09:54;1.33;;;1.17;;
545;SDS011;259;53.304;9.816;2023-06-04T10:12:25;1.00;;;1.00;;
545;SDS011;259;53.304;9.816;2023-06-04T10:15:02;1.30;;;1.20;;
545;SDS011;259;53.304;9.816;2023-06-04T10:17:35;2.20;;;1.20;;
545;SDS011;259;53.304;9.816;2023-06-04T10:20:01;1.03;;;1.03;;
545;SDS011;259;53.304;9.816;2023-06-04T10:22:30;2.40;;;1.40;;
545;SDS011;259;53.304;9.816;2023-06-04T10:25:03;2.23;;;1.83;;
545;SDS011;259;53.304;9.816;2023-06-04T10:27:30;2.30;;;2.10;;
545;SDS011;259;53.304;9.816;2023-06-04T10:29:56;1.30;;;1.20;;
545;SDS011;259;53.304;9.816;2023-06-04T10:32:26;1.93;;;1.67;;
545;SDS011;259;53.304;9.816;2023-06-04T10:34:53;2.00;;;1.37;;
545;SDS011;259;53.304;9.816;2023-06-04T10:37:22;2.10;;;1.90;;
545;SDS011;259;53.304;9.816;2023-06-04T10:39:55;2.83;;;1.73;;
545;SDS011;259;53.304;9.816;2023-06-04T10:42:22;2.13;;;1.60;;
545;SDS011;259;53.304;9.816;2023-06-04T10:44:49;2.60;;;1.73;;
545;SDS011;259;53.304;9.816;2023-06-04T10:47:26;2.70;;;1.50;;
545;SDS011;259;53.304;9.816;2023-06-04T10:50:11;1.90;;;1.40;;
545;SDS011;259;53.304;9.816;2023-06-04T10:52:38;1.80;;;1.47;;
545;SDS011;259;53.304;9.816;2023-06-04T10:55:17;1.50;;;1.40;;
545;SDS011;259;53.304;9.816;2023-06-04T10:57:55;1.40;;;1.30;;
545;SDS011;259;53.304;9.816;2023-06-04T11:00:42;1.20;;;1.10;;
545;SDS011;259;53.304;9.816;2023-06-04T11:03:14;2.03;;;1.20;;
545;SDS011;259;53.304;9.816;2023-06-04T11:05:41;1.97;;;1.33;;
545;SDS011;259;53.304;9.816;2023-06-04T11:08:11;1.40;;;1.30;;
545;SDS011;259;53.304;9.816;2023-06-04T11:10:41;1.33;;;1.23;;
545;SDS011;259;53.304;9.816;2023-06-04T11:13:10;1.40;;;1.30;;
545;SDS011;259;53.304;9.816;2023-06-04T11:15:40;1.23;;;1.20;;
545;SDS011;259;53.304;9.816;2023-06-04T11:18:14;1.40;;;1.30;;
545;SDS011;259;53.304;9.816;2023-06-04T11:20:43;1.83;;;1.60;;
545;SDS011;259;53.304;9.816;2023-06-04T11:23:11;1.90;;;1.33;;
545;SDS011;259;53.304;9.816;2023-06-04T11:25:38;2.27;;;1.50;;
545;SDS011;259;53.304;9.816;2023-06-04T11:28:04;1.33;;;1.23;;
545;SDS011;259;53.304;9.816;2023-06-04T11:30:29;1.60;;;1.10;;
545;SDS011;259;53.304;9.816;2023-06-04T11:33:04;2.00;;;1.40;;
545;SDS011;259;53.304;9.816;2023-06-04T11:35:31;1.23;;;1.13;;
545;SDS011;259;53.304;9.816;2023-06-04T11:38:06;1.57;;;1.47;;
545;SDS011;259;53.304;9.816;2023-06-04T11:40:32;1.37;;;1.27;;
545;SDS011;259;53.304;9.816;2023-06-04T11:42:58;2.27;;;1.37;;
545;SDS011;259;53.304;9.816;2023-06-04T11:45:23;1.90;;;1.50;;
545;SDS011;259;53.304;9.816;2023-06-04T11:47:54;1.37;;;1.27;;
545;SDS011;259;53.304;9.816;2023-06-04T11:50:22;2.63;;;1.70;;
545;SDS011;259;53.304;9.816;2023-06-04T11:52:52;2.30;;;2.03;;
545;SDS011;259;53.304;9.816;2023-06-04T11:55:18;3.20;;;1.70;;
545;SDS011;259;53.304;9.816;2023-06-04T11:57:47;1.50;;;1.13;;
545;SDS011;259;53.304;9.816;2023-06-04T12:00:17;2.60;;;1.70;;
545;SDS011;259;53.304;9.816;2023-06-04T12:02:53;1.40;;;1.23;;
545;SDS011;259;53.304;9.816;2023-06-04T12:05:21;3.57;;;1.30;;
545;SDS011;259;53.304;9.816;2023-06-04T12:08:06;3.00;;;1.73;;
545;SDS011;259;53.304;9.816;2023-06-04T12:10:37;1.67;;;1.57;;
545;SDS011;259;53.304;9.816;2023-06-04T12:13:04;1.70;;;1.60;;
545;SDS011;259;53.304;9.816;2023-06-04T12:15:29;1.50;;;1.33;;
545;SDS011;259;53.304;9.816;2023-06-04T12:17:55;1.73;;;1.63;;
545;SDS011;259;53.304;9.816;2023-06-04T12:20:34;2.37;;;1.47;;
545;SDS011;259;53.304;9.816;2023-06-04T12:23:02;1.40;;;1.20;;
545;SDS011;259;53.304;9.816;2023-06-04T12:25:29;1.40;;;1.30;;
545;SDS011;259;53.304;9.816;2023-06-04T12:27:55;1.50;;;1.40;;
545;SDS011;259;53.304;9.816;2023-06-04T12:30:21;1.50;;;1.40;;
545;SDS011;259;53.304;9.816;2023-06-04T12:32:48;2.13;;;1.33;;
545;SDS011;259;53.304;9.816;2023-06-04T12:35:14;3.93;;;2.90;;
545;SDS011;259;53.304;9.816;2023-06-04T12:37:41;7.70;;;2.20;;
545;SDS011;259;53.304;9.816;2023-06-04T12:40:07;5.50;;;2.50;;
545;SDS011;259;53.304;9.816;2023-06-04T12:42:34;2.47;;;1.80;;
545;SDS011;259;53.304;9.816;2023-06-04T12:44:59;4.30;;;2.17;;
545;SDS011;259;53.304;9.816;2023-06-04T12:47:25;3.23;;;1.80;;
545;SDS011;259;53.304;9.816;2023-06-04T12:49:51;2.03;;;1.53;;
545;SDS011;259;53.304;9.816;2023-06-04T12:52:17;2.70;;;1.53;;
545;SDS011;259;53.304;9.816;2023-06-04T12:54:43;2.10;;;1.37;;
545;SDS011;259;53.304;9.816;2023-06-04T12:57:09;2.33;;;2.10;;
545;SDS011;259;53.304;9.816;2023-06-04T12:59:35;3.17;;;1.63;;
545;SDS011;259;53.304;9.816;2023-06-04T13:02:01;4.80;;;1.63;;
545;SDS011;259;53.304;9.816;2023-06-04T13:04:26;2.50;;;1.80;;
545;SDS011;259;53.304;9.816;2023-06-04T13:06:52;1.90;;;1.70;;
545;SDS011;259;53.304;9.816;2023-06-04T13:09:23;4.00;;;1.63;;
545;SDS011;259;53.304;9.816;2023-06-04T13:11:50;2.80;;;2.20;;
545;SDS011;259;53.304;9.816;2023-06-04T13:14:16;2.10;;;1.80;;
545;SDS011;259;53.304;9.816;2023-06-04T13:16:41;3.03;;;2.00;;
545;SDS011;259;53.304;9.816;2023-06-04T13:19:07;1.50;;;1.40;;
545;SDS011;259;53.304;9.816;2023-06-04T13:21:34;4.03;;;1.70;;
545;SDS011;259;53.304;9.816;2023-06-04T13:24:00;4.07;;;1.70;;
545;SDS011;259;53.304;9.816;2023-06-04T13:26:26;11.60;;;3.70;;
545;SDS011;259;53.304;9.816;2023-06-04T13:28:51;17.13;;;4.03;;
545;SDS011;259;53.304;9.816;2023-06-04T13:31:17;10.20;;;2.67;;
545;SDS011;259;53.304;9.816;2023-06-04T13:33:43;5.83;;;3.40;;
545;SDS011;259;53.304;9.816;2023-06-04T13:36:09;4.00;;;2.67;;
545;SDS011;259;53.304;9.816;2023-06-04T13:38:34;8.80;;;3.07;;
545;SDS011;259;53.304;9.816;2023-06-04T13:41:00;9.77;;;2.37;;
545;SDS011;259;53.304;9.816;2023-06-04T13:43:26;9.50;;;2.47;;
545;SDS011;259;53.304;9.816;2023-06-04T13:45:51;11.67;;;2.00;;
545;SDS011;259;53.304;9.816;2023-06-04T13:48:17;3.40;;;2.00;;
545;SDS011;259;53.304;9.816;2023-06-04T13:50:43;3.70;;;2.17;;
545;SDS011;259;53.304;9.816;2023-06-04T13:53:09;3.30;;;1.93;;
545;SDS011;259;53.304;9.816;2023-06-04T13:55:35;3.90;;;2.57;;
545;SDS011;259;53.304;9.816;2023-06-04T13:58:01;4.30;;;2.20;;
545;SDS011;259;53.304;9.816;2023-06-04T14:00:27;2.90;;;1.77;;
545;SDS011;259;53.304;9.816;2023-06-04T14:02:54;2.00;;;1.47;;
545;SDS011;259;53.304;9.816;2023-06-04T14:05:21;3.80;;;1.83;;
545;SDS011;259;53.304;9.816;2023-06-04T14:07:48;4.50;;;1.30;;
545;SDS011;259;53.304;9.816;2023-06-04T14:10:14;4.23;;;1.90;;
545;SDS011;259;53.304;9.816;2023-06-04T14:12:40;3.60;;;1.90;;
545;SDS011;259;53.304;9.816;2023-06-04T14:15:06;2.47;;;1.50;;
545;SDS011;259;53.304;9.816;2023-06-04T14:17:33;1.83;;;1.67;;
545;SDS011;259;53.304;9.816;2023-06-04T14:20:01;7.50;;;1.77;;
545;SDS011;259;53.304;9.816;2023-06-04T14:22:38;2.93;;;1.60;;
545;SDS011;259;53.304;9.816;2023-06-04T14:25:05;2.13;;;1.57;;
545;SDS011;259;53.304;9.816;2023-06-04T14:27:32;1.60;;;1.50;;
545;SDS011;259;53.304;9.816;2023-06-04T14:29:59;3.57;;;1.87;;
545;SDS011;259;53.304;9.816;2023-06-04T14:32:25;1.93;;;1.43;;
545;SDS011;259;53.304;9.816;2023-06-04T14:34:51;3.10;;;2.20;;
545;SDS011;259;53.304;9.816;2023-06-04T14:37:17;5.50;;;1.53;;
545;SDS011;259;53.304;9.816;2023-06-04T14:39:44;6.37;;;1.80;;
545;SDS011;259;53.304;9.816;2023-06-04T14:42:10;1.80;;;1.70;;
545;SDS011;259;53.304;9.816;2023-06-04T14:44:36;14.77;;;2.13;;
545;SDS011;259;53.304;9.816;2023-06-04T14:47:01;3.10;;;1.80;;
545;SDS011;259;53.304;9.816;2023-06-04T14:49:27;4.33;;;2.30;;
545;SDS011;259;53.304;9.816;2023-06-04T14:51:53;3.03;;;1.67;;
545;SDS011;259;53.304;9.816;2023-06-04T14:54:19;5.07;;;1.80;;
545;SDS011;259;53.304;9.816;2023-06-04T14:56:44;6.50;;;2.30;;
545;SDS011;259;53.304;9.816;2023-06-04T14:59:10;11.53;;;3.30;;
545;SDS011;259;53.304;9.816;2023-06-04T15:01:36;4.10;;;2.60;;
545;SDS011;259;53.304;9.816;2023-06-04T15:04:06;7.50;;;2.70;;
545;SDS011;259;53.304;9.816;2023-06-04T15:06:32;5.50;;;2.80;;
545;SDS011;259;53.304;9.816;2023-06-04T15:08:58;6.63;;;2.30;;
545;SDS011;259;53.304;9.816;2023-06-04T15:11:24;2.60;;;1.93;;
545;SDS011;259;53.304;9.816;2023-06-04T15:13:51;4.63;;;3.47;;
545;SDS011;259;53.304;9.816;2023-06-04T15:16:18;8.77;;;2.67;;
545;SDS011;259;53.304;9.816;2023-06-04T15:18:44;4.80;;;2.87;;
545;SDS011;259;53.304;9.816;2023-06-04T15:21:10;3.10;;;2.30;;
545;SDS011;259;53.304;9.816;2023-06-04T15:23:36;3.00;;;2.17;;
545;SDS011;259;53.304;9.816;2023-06-04T15:26:01;2.40;;;2.20;;
545;SDS011;259;53.304;9.816;2023-06-04T15:28:27;6.23;;;2.10;;
545;SDS011;259;53.304;9.816;2023-06-04T15:30:53;4.77;;;2.50;;
545;SDS011;259;53.304;9.816;2023-06-04T15:33:18;3.47;;;2.00;;
545;SDS011;259;53.304;9.816;2023-06-04T15:35:44;3.83;;;2.20;;
545;SDS011;259;53.304;9.816;2023-06-04T15:38:10;2.43;;;2.23;;
545;SDS011;259;53.304;9.816;2023-06-04T15:40:36;2.30;;;2.10;;
545;SDS011;259;53.304;9.816;2023-06-04T15:43:01;2.50;;;2.30;;
545;SDS011;259;53.304;9.816;2023-06-04T15:45:27;1.80;;;1.70;;
545;SDS011;259;53.304;9.816;2023-06-04T15:47:53;2.73;;;2.37;;
545;SDS011;259;53.304;9.816;2023-06-04T15:50:18;2.20;;;1.80;;
545;SDS011;259;53.304;9.816;2023-06-04T15:52:45;2.00;;;1.77;;
545;SDS011;259;53.304;9.816;2023-06-04T15:55:11;3.07;;;2.20;;